Weather at Güneşköy helipad [CLOSED]

Public forecast

Using degrees Celsius for public forecast. Weather courtesy of forecast.io.

Closest aviation weather report (METAR) to Güneşköy helipad

Closest report is Nicosia (Lefkoşa) Ercan International Airport, 28.3 nm (52.4 km) E.

2024/06/15 16:50 (retrieved 23 minutes ago)

LCEN 151650Z 29020KT CAVOK 30/12 Q1003 NOSIG RMK RWY11R 30018KT RWY29R 30018KT RWY11L 31017KT

Closest aviation forecast (TAF) to Güneşköy helipad

Closest forecast is Nicosia (Lefkoşa) Ercan International Airport, 28.3 nm (52.4 km) E.

2024/06/15 12:03 (retrieved 5 hours ago)

TAF TAF LCEN 151040Z 1512/1612 28016KT 9999 FEW030 BECMG 1606/1609 10010KT CAVOK